createdAt,value
2017-09-12T00:00:10.787Z,0
2017-09-12T00:01:11.105Z,0
2017-09-12T00:02:25.747Z,0
2017-09-12T00:03:11.150Z,0
2017-09-12T00:04:10.877Z,0
2017-09-12T00:05:11.209Z,0
2017-09-12T00:06:25.842Z,0
2017-09-12T00:07:10.929Z,0
2017-09-12T00:08:11.262Z,0
2017-09-12T00:10:11.312Z,0
2017-09-12T00:11:11.332Z,0
2017-09-12T00:12:11.051Z,0
2017-09-12T00:13:11.362Z,0
2017-09-12T00:14:11.077Z,0
2017-09-12T00:15:11.412Z,0
2017-09-12T00:16:11.119Z,0
2017-09-12T00:17:10.851Z,0
2017-09-12T00:18:26.099Z,0
2017-09-12T00:19:11.198Z,0
2017-09-12T00:20:11.228Z,0
2017-09-12T00:21:11.247Z,0
2017-09-12T00:22:26.200Z,0
2017-09-12T00:24:11.344Z,0
2017-09-12T00:25:11.332Z,0
2017-09-12T00:27:11.371Z,0
2017-09-12T00:28:11.704Z,0
2017-09-12T00:29:11.104Z,0
2017-09-12T00:30:11.441Z,0
2017-09-12T00:31:11.776Z,0
2017-09-12T00:32:11.491Z,0
2017-09-12T00:33:11.819Z,0
2017-09-12T00:34:11.210Z,0
2017-09-12T00:35:11.563Z,0
2017-09-12T00:37:11.909Z,0
2017-09-12T00:38:26.226Z,0
2017-09-12T00:39:11.958Z,0
2017-09-12T00:40:11.648Z,0
2017-09-12T00:41:26.300Z,0
2017-09-12T00:42:12.033Z,0
2017-09-12T00:43:12.045Z,0
2017-09-12T00:44:11.749Z,0
2017-09-12T00:45:12.085Z,0
2017-09-12T00:46:11.807Z,0
2017-09-12T00:47:11.815Z,0
2017-09-12T00:48:11.842Z,0
2017-09-12T00:49:12.165Z,0
2017-09-12T00:50:11.878Z,0
2017-09-12T00:52:11.621Z,0
2017-09-12T00:53:12.251Z,0
2017-09-12T00:54:26.889Z,0
2017-09-12T00:55:12.314Z,0
2017-09-12T00:56:12.325Z,0
2017-09-12T00:57:11.732Z,0
2017-09-12T00:58:12.357Z,0
2017-09-12T00:59:12.389Z,0
2017-09-12T01:00:12.106Z,0
2017-09-12T01:01:26.731Z,0
2017-09-12T01:02:12.450Z,0
2017-09-12T01:03:11.884Z,0
2017-09-12T01:04:12.496Z,0
2017-09-12T01:05:12.511Z,0
2017-09-12T01:06:12.236Z,0
2017-09-12T01:07:12.569Z,0
2017-09-12T01:08:12.595Z,0
2017-09-12T01:09:12.326Z,0
2017-09-12T01:10:41.871Z,0
2017-09-12T01:11:12.659Z,0
2017-09-12T01:12:12.352Z,0
2017-09-12T01:13:12.390Z,0
2017-09-12T01:14:12.714Z,0
2017-09-12T01:15:12.478Z,0
2017-09-12T01:16:12.765Z,0
2017-09-12T01:17:12.777Z,0
2017-09-12T01:18:12.483Z,0
2017-09-12T01:19:27.445Z,0
2017-09-12T01:20:12.545Z,0
2017-09-12T01:21:12.565Z,0
2017-09-12T01:22:27.525Z,0
2017-09-12T01:23:12.607Z,0
2017-09-12T01:25:27.579Z,0
2017-09-12T01:26:12.985Z,0
2017-09-12T01:27:13.000Z,0
2017-09-12T01:28:12.722Z,0
2017-09-12T01:29:12.731Z,0
2017-09-12T01:30:12.771Z,0
2017-09-12T01:31:12.779Z,0
2017-09-12T01:32:27.731Z,0
2017-09-12T01:33:12.507Z,0
2017-09-12T01:34:13.147Z,0
2017-09-12T01:35:13.173Z,0
2017-09-12T01:36:12.899Z,0
2017-09-12T01:37:12.906Z,0
2017-09-12T01:38:12.944Z,0
2017-09-12T01:39:12.650Z,0
2017-09-12T01:40:12.671Z,0
2017-09-12T01:41:12.682Z,0
2017-09-12T01:42:27.628Z,0
2017-09-12T01:43:13.031Z,0
2017-09-12T01:44:27.674Z,0
2017-09-12T01:45:13.095Z,0
2017-09-12T01:46:12.783Z,0
2017-09-12T01:49:13.180Z,0
2017-09-12T01:50:13.200Z,0
2017-09-12T01:51:13.525Z,0
2017-09-12T01:52:13.227Z,0
2017-09-12T01:53:13.261Z,0
2017-09-12T01:54:13.266Z,0
2017-09-12T01:55:13.606Z,0
2017-09-12T01:56:13.641Z,0
2017-09-12T01:57:28.270Z,0
2017-09-12T01:58:13.061Z,0
2017-09-12T01:59:13.706Z,0
2017-09-12T02:02:13.460Z,0
2017-09-12T02:03:13.774Z,0
2017-09-12T02:04:28.423Z,0
2017-09-12T02:05:13.516Z,0
2017-09-12T02:06:13.529Z,0
2017-09-12T02:07:27.859Z,0
2017-09-12T02:08:13.905Z,0
2017-09-12T02:09:13.912Z,0
2017-09-12T02:10:13.926Z,0
2017-09-12T02:11:13.948Z,0
2017-09-12T02:12:13.986Z,0
2017-09-12T02:13:28.607Z,0
2017-09-12T02:14:13.708Z,0
2017-09-12T02:15:14.030Z,0
2017-09-12T02:16:13.753Z,0
2017-09-12T02:17:13.784Z,0
2017-09-12T02:18:13.807Z,0
2017-09-12T02:19:14.116Z,0
2017-09-12T02:20:13.841Z,0
2017-09-12T02:21:28.487Z,0
2017-09-12T02:22:28.808Z,0
2017-09-12T02:23:13.910Z,0
2017-09-12T02:24:14.233Z,0
2017-09-12T02:25:28.889Z,0
2017-09-12T02:26:13.677Z,0
2017-09-12T02:27:14.311Z,0
2017-09-12T02:28:14.025Z,0
2017-09-12T02:29:28.963Z,0
2017-09-12T02:30:28.666Z,0
2017-09-12T02:31:14.086Z,0
2017-09-12T02:32:14.407Z,0
2017-09-12T02:33:14.128Z,0
2017-09-12T02:35:14.164Z,0
2017-09-12T02:36:14.194Z,0
2017-09-12T02:37:29.150Z,0
2017-09-12T02:38:29.161Z,0
2017-09-12T02:39:14.572Z,0
2017-09-12T02:40:14.581Z,0
2017-09-12T02:41:14.616Z,0
2017-09-12T02:42:14.632Z,0
2017-09-12T02:43:29.265Z,0
2017-09-12T02:44:14.367Z,0
2017-09-12T02:45:29.306Z,0
2017-09-12T02:47:14.727Z,0
2017-09-12T02:48:14.445Z,0
2017-09-12T02:49:14.788Z,0
2017-09-12T02:50:14.803Z,0
2017-09-12T02:51:29.115Z,0
2017-09-12T02:52:14.534Z,0
2017-09-12T02:53:14.553Z,0
2017-09-12T02:54:14.577Z,0
2017-09-12T02:55:14.579Z,0
2017-09-12T02:56:14.605Z,0
2017-09-12T02:57:14.323Z,0
2017-09-12T02:58:14.957Z,0
2017-09-12T02:59:14.989Z,0
2017-09-12T03:00:29.629Z,0
2017-09-12T03:01:29.651Z,0
2017-09-12T03:02:14.741Z,0
2017-09-12T03:03:14.780Z,0
2017-09-12T03:04:14.785Z,0
2017-09-12T03:05:29.739Z,0
2017-09-12T03:06:15.142Z,0
2017-09-12T03:07:14.866Z,0
2017-09-12T03:08:14.573Z,0
2017-09-12T03:09:15.211Z,0
2017-09-12T03:10:14.904Z,0
2017-09-12T03:11:14.936Z,0
2017-09-12T03:13:14.984Z,0
2017-09-12T03:15:15.020Z,0
2017-09-12T03:16:29.983Z,0
2017-09-12T03:17:15.058Z,0
2017-09-12T03:18:15.075Z,0
2017-09-12T03:19:15.116Z,0
2017-09-12T03:20:15.424Z,0
2017-09-12T03:21:15.150Z,0
2017-09-12T03:22:29.475Z,0
2017-09-12T03:23:15.194Z,0
2017-09-12T03:24:15.201Z,0
2017-09-12T03:25:15.233Z,0
2017-09-12T03:26:15.260Z,0
2017-09-12T03:27:15.579Z,0
2017-09-12T03:28:30.235Z,0
2017-09-12T03:29:15.318Z,0
2017-09-12T03:30:15.360Z,0
2017-09-12T03:32:30.320Z,0
2017-09-12T03:34:15.739Z,0
2017-09-12T03:36:15.779Z,0
2017-09-12T03:37:15.802Z,0
2017-09-12T03:38:15.517Z,0
2017-09-12T03:39:15.836Z,0
2017-09-12T03:40:15.555Z,0
2017-09-12T03:41:15.580Z,0
2017-09-12T03:42:15.905Z,0
2017-09-12T03:43:15.306Z,0
2017-09-12T03:44:15.957Z,0
2017-09-12T03:45:15.665Z,0
2017-09-12T03:47:15.699Z,0
2017-09-12T03:48:45.278Z,0
2017-09-12T03:49:16.073Z,0
2017-09-12T03:50:16.068Z,0
2017-09-12T03:51:30.407Z,0
2017-09-12T03:52:15.815Z,0
2017-09-12T03:53:15.835Z,0
2017-09-12T03:54:16.162Z,0
2017-09-12T03:55:16.197Z,0
2017-09-12T03:56:16.211Z,0
2017-09-12T03:57:16.247Z,0
2017-09-12T03:58:16.256Z,0
2017-09-12T03:59:15.952Z,0
2017-09-12T04:00:16.307Z,4
2017-09-12T04:01:16.315Z,4
2017-09-12T04:02:16.029Z,4
2017-09-12T04:03:16.369Z,4
2017-09-12T04:04:30.999Z,4
2017-09-12T04:05:30.714Z,8
2017-09-12T04:06:16.116Z,4
2017-09-12T04:07:15.516Z,8
2017-09-12T04:08:16.138Z,8
2017-09-12T04:10:16.492Z,12
2017-09-12T04:11:16.239Z,16
2017-09-12T04:12:16.251Z,16
2017-09-12T04:13:16.260Z,20
2017-09-12T04:14:16.271Z,24
2017-09-12T04:15:16.319Z,28
2017-09-12T04:16:16.335Z,32
2017-09-12T04:18:16.660Z,44
2017-09-12T04:19:16.698Z,52
2017-09-12T04:23:16.776Z,104
2017-09-12T04:24:16.509Z,124
2017-09-12T04:25:16.513Z,140
2017-09-12T04:26:16.529Z,160
2017-09-12T04:27:16.882Z,180
2017-09-12T04:28:16.899Z,208
2017-09-12T04:29:16.902Z,236
2017-09-12T04:30:16.633Z,264
2017-09-12T04:31:16.959Z,296
2017-09-12T04:32:16.653Z,328
2017-09-12T04:33:16.991Z,364
2017-09-12T04:34:17.026Z,404
2017-09-12T04:36:17.062Z,492
2017-09-12T04:37:17.081Z,540
2017-09-12T04:38:17.127Z,604
2017-09-12T04:39:16.810Z,668
2017-09-12T04:40:17.144Z,728
2017-09-12T04:41:17.183Z,780
2017-09-12T04:42:16.563Z,836
2017-09-12T04:43:17.205Z,888
2017-09-12T04:44:16.604Z,944
2017-09-12T04:45:17.241Z,984
2017-09-12T04:46:17.268Z,1012
2017-09-12T04:47:31.905Z,1052
2017-09-12T04:48:17.311Z,1080
2017-09-12T04:49:17.324Z,1132
2017-09-12T04:50:17.351Z,1188
2017-09-12T04:51:17.063Z,1228
2017-09-12T04:52:17.386Z,1260
2017-09-12T04:53:17.413Z,1308
2017-09-12T04:54:17.132Z,1380
2017-09-12T04:55:17.460Z,1488
2017-09-12T04:56:17.486Z,1604
2017-09-12T04:57:32.123Z,1760
2017-09-12T04:58:17.538Z,1872
2017-09-12T04:59:17.244Z,2036
2017-09-12T05:00:17.264Z,2188
2017-09-12T05:01:17.590Z,2348
2017-09-12T05:02:17.614Z,2512
2017-09-12T05:03:17.638Z,2732
2017-09-12T05:04:17.663Z,2936
2017-09-12T05:05:17.660Z,3028
2017-09-12T05:06:16.767Z,3132
2017-09-12T05:07:32.018Z,3152
2017-09-12T05:08:32.388Z,3032
2017-09-12T05:09:17.770Z,2924
2017-09-12T05:10:17.467Z,2788
2017-09-12T05:11:17.181Z,2836
2017-09-12T05:12:32.127Z,2852
2017-09-12T05:13:32.148Z,2880
2017-09-12T05:14:17.267Z,2884
2017-09-12T05:15:17.581Z,2924
2017-09-12T05:17:17.932Z,2976
2017-09-12T05:18:32.576Z,2972
2017-09-12T05:19:17.975Z,2980
2017-09-12T05:20:17.678Z,3128
2017-09-12T05:21:18.047Z,4048
2017-09-12T05:22:17.434Z,4532
2017-09-12T05:23:32.693Z,5240
2017-09-12T05:24:17.790Z,4500
2017-09-12T05:25:17.795Z,4220
2017-09-12T05:26:17.818Z,3884
2017-09-12T05:27:18.154Z,3540
2017-09-12T05:28:18.162Z,3264
2017-09-12T05:29:32.829Z,2988
2017-09-12T05:30:17.925Z,2756
2017-09-12T05:31:17.933Z,2516
2017-09-12T05:32:18.270Z,2380
2017-09-12T05:33:32.910Z,2120
2017-09-12T05:35:18.024Z,1936
2017-09-12T05:36:18.043Z,1892
2017-09-12T05:37:18.067Z,1896
2017-09-12T05:38:18.399Z,1884
2017-09-12T05:39:32.729Z,1876
2017-09-12T05:40:32.746Z,1984
2017-09-12T05:41:18.136Z,2112
2017-09-12T05:42:18.165Z,2524
2017-09-12T05:43:18.237Z,2680
2017-09-12T05:44:18.208Z,2728
2017-09-12T05:46:18.576Z,3436
2017-09-12T05:47:18.595Z,3916
2017-09-12T05:48:18.299Z,3852
2017-09-12T05:49:18.634Z,3672
2017-09-12T05:50:18.345Z,3708
2017-09-12T05:51:18.379Z,3748
2017-09-12T05:52:18.717Z,3700
2017-09-12T05:53:18.453Z,3556
2017-09-12T05:54:18.741Z,3568
2017-09-12T05:55:33.389Z,4004
2017-09-12T05:56:18.782Z,4252
2017-09-12T05:57:18.197Z,4532
2017-09-12T05:58:18.844Z,5088
2017-09-12T05:59:18.849Z,6592
2017-09-12T06:00:18.571Z,5560
2017-09-12T06:01:18.909Z,5356
2017-09-12T06:02:33.230Z,6220
2017-09-12T06:03:18.636Z,5572
2017-09-12T06:04:18.645Z,6084
2017-09-12T06:05:33.605Z,5968
2017-09-12T06:06:19.005Z,5912
2017-09-12T06:07:19.027Z,5972
2017-09-12T06:08:18.744Z,5804
2017-09-12T06:09:19.095Z,5668
2017-09-12T06:10:33.715Z,5692
2017-09-12T06:11:33.737Z,6188
2017-09-12T06:12:18.848Z,6356
2017-09-12T06:13:19.170Z,6516
2017-09-12T06:14:19.212Z,6264
2017-09-12T06:15:19.234Z,5852
2017-09-12T06:16:19.236Z,5692
2017-09-12T06:17:19.254Z,5940
2017-09-12T06:18:33.905Z,6360
2017-09-12T06:20:19.322Z,6680
2017-09-12T06:21:19.360Z,6448
2017-09-12T06:22:19.370Z,5796
2017-09-12T06:23:19.407Z,5112
2017-09-12T06:25:19.439Z,4304
2017-09-12T06:26:19.467Z,4236
2017-09-12T06:27:19.486Z,4272
2017-09-12T06:29:19.537Z,4668
2017-09-12T06:30:19.238Z,4908
2017-09-12T06:31:19.579Z,5000
2017-09-12T06:32:19.598Z,5280
2017-09-12T06:33:19.636Z,5532
2017-09-12T06:34:19.330Z,5852
2017-09-12T06:35:19.363Z,6076
2017-09-12T06:36:19.697Z,6304
2017-09-12T06:37:19.413Z,6248
2017-09-12T06:38:19.730Z,6004
2017-09-12T06:40:19.479Z,6344
2017-09-12T06:41:19.797Z,7000
2017-09-12T06:42:34.538Z,7376
2017-09-12T06:43:19.850Z,7788
2017-09-12T06:44:19.573Z,7592
2017-09-12T06:45:34.519Z,7236
2017-09-12T06:46:19.609Z,7216
2017-09-12T06:47:19.934Z,7280
2017-09-12T06:48:19.966Z,7720
2017-09-12T06:49:19.684Z,7760
2017-09-12T06:50:20.005Z,7856
2017-09-12T06:53:20.070Z,10836
2017-09-12T06:54:20.002Z,14584
2017-09-12T06:55:19.823Z,43776
2017-09-12T06:56:20.142Z,22752
2017-09-12T06:57:34.481Z,29024
2017-09-12T06:58:34.806Z,16832
2017-09-12T06:59:20.207Z,14376
2017-09-12T07:00:19.925Z,13280
2017-09-12T07:01:19.955Z,12424
2017-09-12T07:02:19.682Z,11668
2017-09-12T07:03:20.006Z,11484
2017-09-12T07:04:20.339Z,11232
2017-09-12T07:05:20.359Z,10640
2017-09-12T07:06:35.004Z,9856
2017-09-12T07:07:20.406Z,10052
2017-09-12T07:08:20.453Z,9732
2017-09-12T07:09:20.143Z,10896
2017-09-12T07:11:20.221Z,10636
2017-09-12T07:12:20.210Z,12236
2017-09-12T07:13:20.560Z,12576
2017-09-12T07:14:34.881Z,12956
2017-09-12T07:15:34.607Z,13668
2017-09-12T07:16:20.633Z,15300
2017-09-12T07:17:20.641Z,16768
2017-09-12T07:18:20.358Z,17152
2017-09-12T07:19:20.696Z,18016
2017-09-12T07:20:35.353Z,23008
2017-09-12T07:21:20.746Z,21344
2017-09-12T07:22:35.387Z,26080
2017-09-12T07:23:20.482Z,26400
2017-09-12T07:24:20.192Z,29248
2017-09-12T07:25:20.842Z,65696
2017-09-12T07:26:20.870Z,33344
2017-09-12T07:27:20.898Z,34304
2017-09-12T07:28:20.919Z,51936
2017-09-12T07:29:20.628Z,59424
2017-09-12T07:30:35.587Z,30400
2017-09-12T07:31:20.993Z,40544
2017-09-12T07:32:20.720Z,37152
2017-09-12T07:33:20.420Z,51936
2017-09-12T07:34:20.442Z,37152
2017-09-12T07:35:21.095Z,24992
2017-09-12T07:36:21.122Z,22720
2017-09-12T07:37:35.761Z,18176
2017-09-12T07:38:21.174Z,16004
2017-09-12T07:39:21.192Z,13992
2017-09-12T07:40:35.537Z,12964
2017-09-12T07:41:21.248Z,12692
2017-09-12T07:43:20.999Z,11524
2017-09-12T07:44:21.335Z,11340
2017-09-12T07:45:35.664Z,11156
2017-09-12T07:46:36.014Z,11620
2017-09-12T07:47:21.411Z,11680
2017-09-12T07:48:21.450Z,13452
2017-09-12T07:49:21.444Z,11872
2017-09-12T07:50:21.485Z,12828
2017-09-12T07:51:20.885Z,12844
2017-09-12T07:52:21.544Z,13100
2017-09-12T07:53:21.551Z,11820
2017-09-12T07:54:21.589Z,12216
2017-09-12T07:55:21.601Z,27296
2017-09-12T07:56:21.638Z,10396
2017-09-12T07:57:21.667Z,9872
2017-09-12T07:58:21.696Z,12820
2017-09-12T07:59:21.076Z,9620
2017-09-12T08:00:21.429Z,9024
2017-09-12T08:01:21.766Z,9264
2017-09-12T08:02:36.412Z,9664
2017-09-12T08:03:21.818Z,9912
2017-09-12T08:04:21.837Z,10556
2017-09-12T08:05:21.856Z,10592
2017-09-12T08:06:21.887Z,10408
2017-09-12T08:07:21.289Z,10292
2017-09-12T08:08:21.939Z,10108
2017-09-12T08:09:21.636Z,10124
2017-09-12T08:10:21.668Z,10604
2017-09-12T08:11:22.006Z,11816
2017-09-12T08:13:21.735Z,11156
2017-09-12T08:14:22.075Z,10972
2017-09-12T08:15:21.791Z,11528
2017-09-12T08:16:22.135Z,11380
2017-09-12T08:17:51.398Z,11432
2017-09-12T08:18:22.172Z,11284
2017-09-12T08:19:22.223Z,11140
2017-09-12T08:20:22.232Z,11172
2017-09-12T08:21:22.268Z,11224
2017-09-12T08:22:22.279Z,11264
2017-09-12T08:23:36.924Z,11232
2017-09-12T08:25:22.372Z,11128
2017-09-12T08:26:22.375Z,10900
2017-09-12T08:27:37.030Z,10812
2017-09-12T08:28:22.429Z,10976
2017-09-12T08:29:22.454Z,11044
2017-09-12T08:31:22.497Z,10700
2017-09-12T08:32:37.155Z,10860
2017-09-12T08:34:22.561Z,11324
2017-09-12T08:35:37.216Z,11340
2017-09-12T08:36:22.644Z,11592
2017-09-12T08:37:37.271Z,12288
2017-09-12T08:38:22.673Z,12632
2017-09-12T08:40:22.770Z,13768
2017-09-12T08:41:22.449Z,14764
2017-09-12T08:42:22.762Z,16208
2017-09-12T08:43:22.801Z,18016
2017-09-12T08:44:22.832Z,18624
2017-09-12T08:45:22.838Z,18784
2017-09-12T08:46:22.869Z,19008
2017-09-12T08:47:22.593Z,19136
2017-09-12T08:48:22.926Z,18144
2017-09-12T08:49:37.265Z,16216
2017-09-12T08:50:22.981Z,15952
2017-09-12T08:51:23.003Z,15256
2017-09-12T08:52:22.725Z,19168
2017-09-12T08:54:23.073Z,21280
2017-09-12T08:55:23.107Z,21728
2017-09-12T08:56:22.819Z,24192
2017-09-12T08:57:37.467Z,26656
2017-09-12T08:58:22.873Z,29632
2017-09-12T08:59:23.197Z,28768
2017-09-12T09:00:22.916Z,27232
2017-09-12T09:01:22.934Z,25984
2017-09-12T09:02:22.973Z,24512
2017-09-12T09:03:23.297Z,16876
2017-09-12T09:04:23.017Z,19488
2017-09-12T09:05:37.680Z,20672
2017-09-12T09:06:37.996Z,20736
2017-09-12T09:07:23.417Z,22304
2017-09-12T09:08:23.437Z,22720
2017-09-12T09:09:23.464Z,23232
2017-09-12T09:10:23.492Z,22368
2017-09-12T09:11:23.201Z,20800
2017-09-12T09:12:23.571Z,22144
2017-09-12T09:13:23.572Z,23424
2017-09-12T09:14:37.919Z,16156
2017-09-12T09:15:23.627Z,18144
2017-09-12T09:16:23.046Z,15556
2017-09-12T09:17:23.366Z,17696
2017-09-12T09:18:23.410Z,21728
2017-09-12T09:19:23.756Z,22656
2017-09-12T09:20:38.380Z,22528
2017-09-12T09:21:23.171Z,20416
2017-09-12T09:22:23.816Z,17504
2017-09-12T09:23:23.857Z,18752
2017-09-12T09:24:23.871Z,18752
2017-09-12T09:25:23.913Z,18560
2017-09-12T09:26:23.630Z,16536
2017-09-12T09:27:23.664Z,14992
2017-09-12T09:28:38.626Z,14052
2017-09-12T09:29:24.020Z,13516
2017-09-12T09:30:24.057Z,14172
2017-09-12T09:31:24.072Z,15160
2017-09-12T09:32:23.798Z,15348
2017-09-12T09:33:23.835Z,15240
2017-09-12T09:34:23.852Z,15076
2017-09-12T09:35:24.180Z,15420
2017-09-12T09:36:24.210Z,15252
2017-09-12T09:37:23.930Z,16428
2017-09-12T09:38:38.885Z,17216
2017-09-12T09:39:23.991Z,18048
2017-09-12T09:40:24.324Z,18304
2017-09-12T09:41:24.356Z,17760
2017-09-12T09:42:24.067Z,19168
2017-09-12T09:43:39.035Z,13760
2017-09-12T09:44:24.434Z,13916
2017-09-12T09:45:39.079Z,15184
2017-09-12T09:46:24.175Z,14664
2017-09-12T09:47:39.142Z,12744
2017-09-12T09:48:24.557Z,15000
2017-09-12T09:49:24.597Z,13740
2017-09-12T09:50:24.590Z,18560
2017-09-12T09:51:24.620Z,16424
2017-09-12T09:52:39.269Z,16528
2017-09-12T09:53:24.371Z,15412
2017-09-12T09:54:24.716Z,11864
2017-09-12T09:55:24.742Z,18112
2017-09-12T09:56:24.759Z,19264
2017-09-12T09:57:24.791Z,19712
2017-09-12T09:58:24.803Z,19744
2017-09-12T10:00:24.880Z,15872
2017-09-12T10:01:24.601Z,18336
2017-09-12T10:02:39.543Z,17248
2017-09-12T10:03:24.957Z,11708
2017-09-12T10:04:24.978Z,13292
2017-09-12T10:05:24.701Z,19328
2017-09-12T10:06:25.045Z,14780
2017-09-12T10:07:25.075Z,17568
2017-09-12T10:08:39.403Z,10936
2017-09-12T10:09:24.822Z,17728
2017-09-12T10:10:39.764Z,14028
2017-09-12T10:11:24.868Z,18432
2017-09-12T10:12:24.587Z,17792
2017-09-12T10:13:25.217Z,9504
2017-09-12T10:14:24.950Z,8292
2017-09-12T10:15:24.987Z,8708
2017-09-12T10:16:24.999Z,8180
2017-09-12T10:18:25.366Z,16568
2017-09-12T10:19:25.404Z,16308
2017-09-12T10:20:24.807Z,7784
2017-09-12T10:21:25.154Z,8116
2017-09-12T10:22:25.181Z,11896
2017-09-12T10:23:25.185Z,8552
2017-09-12T10:24:40.153Z,9088
2017-09-12T10:25:40.169Z,9692
2017-09-12T10:26:25.289Z,10636
2017-09-12T10:27:25.000Z,13228
2017-09-12T10:28:25.639Z,13144
2017-09-12T10:29:25.355Z,14528
2017-09-12T10:30:25.083Z,11032
2017-09-12T10:31:25.410Z,9188
2017-09-12T10:32:25.439Z,8380
2017-09-12T10:33:40.417Z,8200
2017-09-12T10:34:25.484Z,8272
2017-09-12T10:35:25.823Z,8336
2017-09-12T10:36:40.489Z,8376
2017-09-12T10:37:25.578Z,8284
2017-09-12T10:38:25.909Z,8672
2017-09-12T10:39:25.630Z,9768
2017-09-12T10:40:40.582Z,10680
2017-09-12T10:41:25.992Z,11592
2017-09-12T10:42:26.047Z,12556
2017-09-12T10:43:26.057Z,10976
2017-09-12T10:44:25.764Z,10260
2017-09-12T10:45:25.780Z,10008
2017-09-12T10:46:26.122Z,9988
2017-09-12T10:47:40.766Z,9896
2017-09-12T10:48:26.174Z,9876
2017-09-12T10:49:26.200Z,10260
2017-09-12T10:50:26.232Z,10444
2017-09-12T10:51:25.939Z,10836
2017-09-12T10:52:25.960Z,11136
2017-09-12T10:53:26.003Z,10724
2017-09-12T10:54:26.016Z,10640
2017-09-12T10:55:40.977Z,10876
2017-09-12T10:56:26.073Z,10600
2017-09-12T10:57:26.413Z,10760
2017-09-12T10:59:26.457Z,11384
2017-09-12T11:00:26.499Z,11720
2017-09-12T11:01:41.140Z,13136
2017-09-12T11:02:26.528Z,13736
2017-09-12T11:03:26.573Z,12388
2017-09-12T11:04:26.590Z,12300
2017-09-12T11:05:26.313Z,11600
2017-09-12T11:06:26.632Z,10988
2017-09-12T11:07:26.675Z,10232
2017-09-12T11:08:26.700Z,9472
2017-09-12T11:09:26.721Z,8792
2017-09-12T11:10:26.749Z,8160
2017-09-12T11:11:26.793Z,8148
2017-09-12T11:12:26.804Z,8596
2017-09-12T11:13:41.442Z,9216
2017-09-12T11:14:26.862Z,9984
2017-09-12T11:15:41.490Z,9892
2017-09-12T11:16:26.913Z,9044
2017-09-12T11:17:41.556Z,9744
2017-09-12T11:19:26.981Z,9956
2017-09-12T11:20:27.038Z,11380
2017-09-12T11:21:27.054Z,11776
2017-09-12T11:22:41.378Z,9552
2017-09-12T11:23:27.083Z,9136
2017-09-12T11:24:26.813Z,9544
2017-09-12T11:25:27.144Z,8028
2017-09-12T11:26:27.172Z,7752
2017-09-12T11:27:41.819Z,7384
2017-09-12T11:28:26.918Z,8312
2017-09-12T11:29:26.944Z,8064
2017-09-12T11:31:27.293Z,6700
2017-09-12T11:32:27.335Z,6720
2017-09-12T11:33:27.368Z,7480
2017-09-12T11:34:27.393Z,7336
2017-09-12T11:35:27.098Z,6256
2017-09-12T11:36:27.137Z,8504
2017-09-12T11:37:27.459Z,8480
2017-09-12T11:38:27.171Z,6936
2017-09-12T11:39:26.886Z,6688
2017-09-12T11:40:27.540Z,6640
2017-09-12T11:41:27.574Z,8112
2017-09-12T11:42:27.287Z,7180
2017-09-12T11:43:41.915Z,7796
2017-09-12T11:44:27.635Z,7920
2017-09-12T11:45:27.673Z,7368
2017-09-12T11:46:27.692Z,6800
2017-09-12T11:47:27.424Z,6492
2017-09-12T11:48:27.743Z,6268
2017-09-12T11:49:27.785Z,5816
2017-09-12T11:50:27.807Z,5236
2017-09-12T11:51:27.198Z,4856
2017-09-12T11:53:42.492Z,4248
2017-09-12T11:54:27.893Z,4156
2017-09-12T11:55:27.960Z,4464
2017-09-12T11:56:27.996Z,5000
2017-09-12T11:57:27.984Z,5416
2017-09-12T11:58:28.012Z,5692
2017-09-12T11:59:42.332Z,6052
2017-09-12T12:00:27.744Z,6188
2017-09-12T12:01:28.087Z,6240
2017-09-12T12:02:27.175Z,6140
2017-09-12T12:03:28.129Z,5844
2017-09-12T12:04:28.145Z,5788
2017-09-12T12:05:28.186Z,5752
2017-09-12T12:07:28.227Z,5972
2017-09-12T12:08:27.957Z,6180
2017-09-12T12:09:28.285Z,6068
2017-09-12T12:10:28.303Z,5460
2017-09-12T12:11:28.333Z,4840
2017-09-12T12:12:28.391Z,4952
2017-09-12T12:13:42.996Z,5092
2017-09-12T12:14:28.404Z,5160
2017-09-12T12:15:43.059Z,5620
2017-09-12T12:16:27.846Z,5712
2017-09-12T12:17:28.190Z,5888
2017-09-12T12:18:28.516Z,6252
2017-09-12T12:19:28.527Z,6672
2017-09-12T12:20:28.564Z,6988
2017-09-12T12:21:43.223Z,7460
2017-09-12T12:22:28.616Z,7632
2017-09-12T12:23:42.953Z,7788
2017-09-12T12:24:28.346Z,7956
2017-09-12T12:25:28.702Z,8216
2017-09-12T12:26:28.929Z,8404
2017-09-12T12:27:28.741Z,10096
2017-09-12T12:28:28.151Z,8972
2017-09-12T12:29:43.425Z,8608
2017-09-12T12:30:43.457Z,8596
2017-09-12T12:31:28.546Z,8512
2017-09-12T12:32:28.556Z,10072
2017-09-12T12:33:28.279Z,8636
2017-09-12T12:34:28.610Z,8256
2017-09-12T12:35:28.964Z,8024
2017-09-12T12:36:43.600Z,8068
2017-09-12T12:37:43.307Z,7972
2017-09-12T12:38:28.719Z,7996
2017-09-12T12:40:29.075Z,7440
2017-09-12T12:41:29.115Z,7780
2017-09-12T12:42:29.133Z,7816
2017-09-12T12:43:43.782Z,9672
2017-09-12T12:44:29.193Z,9776
2017-09-12T12:45:28.887Z,8688
2017-09-12T12:46:43.843Z,8756
2017-09-12T12:47:29.268Z,7620
2017-09-12T12:48:29.296Z,7856
2017-09-12T12:49:29.324Z,9332
2017-09-12T12:50:29.341Z,9300
2017-09-12T12:51:29.068Z,7524
2017-09-12T12:52:29.432Z,8488
2017-09-12T12:54:29.435Z,7876
2017-09-12T12:55:29.476Z,7552
2017-09-12T12:56:29.182Z,7200
2017-09-12T12:57:29.524Z,6856
2017-09-12T12:58:29.252Z,6860
2017-09-12T12:59:29.579Z,6784
2017-09-12T13:00:43.909Z,6724
2017-09-12T13:01:29.631Z,6676
2017-09-12T13:02:43.952Z,6492
2017-09-12T13:03:43.983Z,5836
2017-09-12T13:04:29.707Z,5752
2017-09-12T13:05:29.734Z,5728
2017-09-12T13:06:29.749Z,5688
2017-09-12T13:07:29.486Z,5676
2017-09-12T13:08:29.799Z,5608
2017-09-12T13:09:29.819Z,5160
2017-09-12T13:10:29.851Z,4564
2017-09-12T13:11:29.883Z,4208
2017-09-12T13:12:29.913Z,4040
2017-09-12T13:13:29.929Z,4012
2017-09-12T13:14:29.954Z,3884
2017-09-12T13:15:29.990Z,3696
2017-09-12T13:17:29.731Z,3036
2017-09-12T13:18:44.681Z,2872
2017-09-12T13:19:29.782Z,2656
2017-09-12T13:20:29.804Z,2480
2017-09-12T13:21:30.139Z,2428
2017-09-12T13:22:30.168Z,2416
2017-09-12T13:23:30.199Z,2504
2017-09-12T13:24:30.212Z,2660
2017-09-12T13:25:29.932Z,2836
2017-09-12T13:26:44.887Z,3232
2017-09-12T13:27:30.305Z,3548
2017-09-12T13:28:30.317Z,3868
2017-09-12T13:29:30.341Z,3872
2017-09-12T13:30:30.367Z,3636
2017-09-12T13:32:30.435Z,3112
2017-09-12T13:33:30.439Z,2916
2017-09-12T13:34:45.092Z,2752
2017-09-12T13:35:44.803Z,2684
2017-09-12T13:36:30.532Z,2644
2017-09-12T13:37:30.553Z,2640
2017-09-12T13:38:30.261Z,2668
2017-09-12T13:39:30.616Z,2664
2017-09-12T13:40:30.625Z,2636
2017-09-12T13:41:30.648Z,2632
2017-09-12T13:42:30.681Z,2624
2017-09-12T13:43:30.716Z,2604
2017-09-12T13:44:30.737Z,2564
2017-09-12T13:45:30.749Z,2484
2017-09-12T13:46:30.773Z,2400
2017-09-12T13:47:30.802Z,2340
2017-09-12T13:48:30.203Z,2320
2017-09-12T13:49:30.844Z,2340
2017-09-12T13:50:45.184Z,2404
2017-09-12T13:51:30.592Z,2472
2017-09-12T13:52:30.923Z,2588
2017-09-12T13:54:31.009Z,2848
2017-09-12T13:56:31.018Z,3180
2017-09-12T13:57:31.039Z,3388
2017-09-12T13:58:31.068Z,3576
2017-09-12T13:59:31.090Z,3856
2017-09-12T14:00:45.735Z,4780
2017-09-12T14:01:31.158Z,6644
2017-09-12T14:02:45.800Z,7656
2017-09-12T14:03:31.206Z,7940
2017-09-12T14:04:31.216Z,8332
2017-09-12T14:05:45.861Z,8752
2017-09-12T14:06:31.257Z,8832
2017-09-12T14:07:30.670Z,8696
2017-09-12T14:08:31.312Z,8412
2017-09-12T14:09:31.036Z,8208
2017-09-12T14:10:45.985Z,8044
2017-09-12T14:11:45.699Z,7836
2017-09-12T14:12:30.791Z,7568
2017-09-12T14:13:31.437Z,7200
2017-09-12T14:14:31.462Z,6924
2017-09-12T14:15:31.194Z,6744
2017-09-12T14:16:31.509Z,6560
2017-09-12T14:17:31.547Z,6404
2017-09-12T14:18:31.576Z,6272
2017-09-12T14:19:31.284Z,6188
2017-09-12T14:20:31.619Z,6092
2017-09-12T14:21:46.245Z,5992
2017-09-12T14:22:31.654Z,5952
2017-09-12T14:23:45.685Z,5848
2017-09-12T14:24:46.336Z,5812
2017-09-12T14:25:31.745Z,5764
2017-09-12T14:26:31.748Z,5824
2017-09-12T14:27:31.836Z,5848
2017-09-12T14:28:31.502Z,5652
2017-09-12T14:29:31.839Z,5772